ADDS METAR Data INFO
IDs: Format: Raw Decoded Include TAF

Data at: 0353 UTC 18 Oct 2017

PADE 180253Z AUTO 32009KT 10SM SCT028 BKN033 OVC048 01/M03 A2949 RMK AO2 SLP987 T00111033 55001 TSNO $
PADE 180153Z AUTO 31011KT 10SM FEW028 BKN055 02/M04 A2948 RMK AO2 SLP984 T00171039 TSNO $
PADE 180053Z AUTO 31008KT 10SM FEW027 SCT070 BKN085 02/M03 A2949 RMK AO2 SLP986 T00171033 TSNO $
PADE 180001Z AUTO 31010KT 10SM BKN031 OVC090 02/M04 A2950 RMK AO2 T00171039 TSNO $
PADE 172353Z AUTO 32010KT 10SM BKN029 OVC090 02/M03 A2949 RMK AO2 SLP988 60003 T00171033 10022 20006 58002 TSNO $
PADE 172253Z AUTO 24010KT 10SM BKN022 OVC029 02/M01 A2950 RMK AO2 SLP990 T00171011 TSNO $
PADE 172153Z AUTO 28011KT 10SM BKN018 02/M02 A2950 RMK AO2 SLP991 T00171022 TSNO $
PADE 172053Z AUTO 28009KT 10SM OVC018 01/M02 A2950 RMK AO2 SNE03 SLP991 P0000 60003 T00111017 53004 TSNO $
PADE 171753Z AUTO 25009KT 9SM SCT006 BKN011 OVC020 01/M01 A2949 RMK SNE51 SLP987 P0002 60006 T00061006 10022 21006 58003 TSNO $ VIA AUTODIAL
PADE 171751Z AUTO 25007KT 9SM FEW006 SCT011 OVC017 01/M01 A2949 RMK SNE51 P0002 TSNO $ VIA AUTODIAL
PADE 171731Z AUTO 23012KT 1 1/4SM -SN BR FEW007 OVC011 00/M01 A2949 RMK P0001 T00001011 TSNO $ VIA AUTODIAL
PADE 171726Z AUTO 23011KT 3/4SM -SN BR VV012 00/M01 A2949 RMK P0001 T00001011 TSNO $ VIA AUTODIAL
PADE 171719Z AUTO 24011KT 1SM -SN BR VV012 00/M01 A2949 RMK P0001 T00001011 TSNO $ VIA AUTODIAL
PADE 171709Z AUTO 26008KT 2SM -SN BR OVC014 00/M01 A2950 RMK P0000 T00001011 TSNO $ VIA AUTODIAL
PADE 170913Z AUTO 21004KT 10SM OVC015 00/M01 A2956 RMK AO2 T00001011 TSNO $
PADE 170853Z AUTO 23006KT 10SM BKN014 BKN022 00/M01 A2956 RMK AO2 SLP011 I3000 T00001011 400281017 57001 TSNO $
PADE 170848Z AUTO 23005KT 10SM FEW004 BKN014 BKN022 M01/M02 A2956 RMK AO2 TSNO $
PADE 170835Z AUTO 24004KT 10SM FEW004 SCT012 BKN019 M02/M03 A2956 RMK AO2 T10171028 TSNO $
PADE 170815Z AUTO 21005KT 10SM BKN004 OVC020 M01/M02 A2956 RMK AO2 T10061017 TSNO $
PADE 170753Z AUTO 21007KT 10SM BKN005 OVC020 M01/M02 A2957 RMK AO2 SLP012 T10061017 TSNO $
PADE 170731Z AUTO 20006KT 10SM BKN005 00/M01 A2957 RMK AO2 CIG 003V007 T00001006 TSNO $
PADE 170718Z AUTO 20004KT 10SM BKN003 BKN023 00/M01 A2957 RMK AO2 CIG 001V006 T00001011 TSNO $
PADE 170710Z AUTO 19005KT 10SM FEW003 SCT024 00/M01 A2957 RMK AO2 T00001006 TSNO $
PADE 170703Z AUTO 21003KT 10SM BKN003 BKN024 00/M01 A2957 RMK AO2 CIG 001V007 T00001006 TSNO $
PADE 170653Z AUTO 24004KT 10SM SCT003 BKN024 01/00 A2957 RMK AO2 SLP013 I1000 T00060000 TSNO $
PADE 170649Z AUTO 25005KT 10SM BKN003 OVC024 01/00 A2957 RMK AO2 I1000 TSNO $
PADE 170641Z AUTO 23004KT 2SM BR OVC003 01/00 A2957 RMK AO2 I1000 T00060000 TSNO $
PADE 170600Z AUTO 21005KT 1SM BR BKN005 OVC015 01/01 A2957 RMK AO2 T00110006 TSNO $
PADE 170553Z AUTO 22004KT 1SM BR BKN007 OVC015 01/00 A2957 RMK AO2 SLP013 60000 T00110000 10028 20011 56002 TSNO $
PADE 170549Z AUTO 22005KT 1 1/2SM BR BKN007 BKN013 OVC027 01/00 A2957 RMK AO2 TSNO $
PADE 170546Z AUTO 22005KT 2 1/2SM BR SCT007 BKN013 OVC025 01/00 A2957 RMK AO2 T00110000 TSNO $
PADE 170515Z AUTO 26006KT 10SM SCT007 OVC023 01/00 A2957 RMK AO2 T00110000 TSNO $
PADE 170453Z AUTO 24005KT 10SM OVC006 01/00 A2957 RMK AO2 SLP014 T00110000 TSNO $
PADE 170353Z AUTO 26003KT 10SM BKN007 OVC011 02/01 A2957 RMK AO2 SLP015 T00170006 TSNO $
PADE 170337Z AUTO 28004KT 10SM OVC010 02/01 A2958 RMK AO2 T00220011 TSNO $
PADE 170253Z AUTO 27004KT 8SM OVC008 02/01 A2958 RMK AO2 SLP016 60000 T00220011 56006 TSNO $
PADE 170221Z AUTO 29005KT 9SM OVC008 02/01 A2958 RMK AO2 T00220011 TSNO $
PADE 170213Z AUTO 29005KT 5SM BR BKN005 OVC008 02/01 A2958 RMK AO2 T00220011 TSNO $
PADE 170153Z AUTO 28006KT 2 1/2SM BR BKN006 OVC010 02/01 A2958 RMK AO2 SLP017 T00220011 TSNO $
PADE 170053Z AUTO 30004KT 10SM BKN009 OVC013 03/01 A2959 RMK AO2 UPE01 SLP020 P0000 T00280011 TSNO $
PADE 170030Z AUTO 31003KT 10SM OVC011 03/01 A2959 RMK AO2 UPE01 P0000 T00280011 TSNO $
PADE 170013Z AUTO 31004KT 10SM OVC009 03/01 A2959 RMK AO2 UPE01 P0000 T00280011 TSNO $
PADE 162353Z AUTO 29005KT 7SM UP BKN010 OVC014 03/01 A2960 RMK AO2 UPB08E19B43SNB25E43 SLP022 P0000 60000 T00280011 10028 21006 58002 TSNO $
PADE 162253Z AUTO 00000KT 8SM OVC008 03/01 A2960 RMK AO2 SLP023 T00280011 TSNO $
PADE 162229Z AUTO 00000KT 10SM BKN008 OVC012 02/01 A2960 RMK AO2 T00220011 TSNO $
PADE 162153Z AUTO 20003KT 10SM OVC012 02/01 A2960 RMK AO2 SLP023 T00220006 TSNO $
PADE 161953Z AUTO 21004KT 10SM OVC015 01/M01 A2960 RMK AO2 SLP022 T00061006 TSNO $
PADE 161810Z AUTO 20006KT 10SM BKN018 OVC045 M01/M02 A2959 RMK AO2 T10061022 TSNO $
PADE 161753Z AUTO 20005KT 10SM FEW020 OVC046 M01/M02 A2959 RMK AO2 SLP020 T10061017 10000 21017 57000 TSNO $
PADE 161727Z AUTO 21005KT 10SM SCT018 OVC046 M01/M02 A2959 RMK AO2 T10061017 TSNO $
PADE 161653Z AUTO 22005KT 10SM OVC019 00/M02 A2959 RMK AO2 SLP020 T00001017 TSNO $